createdAt,value
2018-06-22T00:00:56.016Z,964.60
2018-06-22T00:01:55.998Z,964.55
2018-06-22T00:02:55.980Z,964.55
2018-06-22T00:03:55.964Z,964.55
2018-06-22T00:04:55.947Z,964.63
2018-06-22T00:05:55.930Z,964.64
2018-06-22T00:06:55.912Z,964.62
2018-06-22T00:07:55.895Z,964.65
2018-06-22T00:08:55.880Z,964.68
2018-06-22T00:09:55.865Z,964.68
2018-06-22T00:10:55.845Z,964.70
2018-06-22T00:11:55.828Z,964.76
2018-06-22T00:12:55.812Z,964.80
2018-06-22T00:13:55.793Z,964.80
2018-06-22T00:14:55.778Z,964.79
2018-06-22T00:15:55.761Z,964.81
2018-06-22T00:16:55.745Z,964.79
2018-06-22T00:17:55.725Z,964.83
2018-06-22T00:18:55.710Z,964.83
2018-06-22T00:19:55.693Z,964.87
2018-06-22T00:20:55.676Z,964.90
2018-06-22T00:21:55.658Z,964.84
2018-06-22T00:22:55.641Z,964.91
2018-06-22T00:23:55.624Z,964.93
2018-06-22T00:24:55.606Z,964.93
2018-06-22T00:25:55.591Z,965.00
2018-06-22T00:26:55.571Z,964.99
2018-06-22T00:27:55.554Z,965.04
2018-06-22T00:28:55.537Z,965.02
2018-06-22T00:29:55.520Z,965.03
2018-06-22T00:30:55.504Z,965.07
2018-06-22T00:31:55.485Z,965.15
2018-06-22T00:32:55.568Z,965.10
2018-06-22T00:33:55.452Z,965.12
2018-06-22T00:34:55.433Z,965.11
2018-06-22T00:35:55.416Z,965.11
2018-06-22T00:36:55.398Z,965.12
2018-06-22T00:37:55.380Z,965.12
2018-06-22T00:38:55.365Z,965.18
2018-06-22T00:39:55.347Z,965.27
2018-06-22T00:40:55.329Z,965.16
2018-06-22T00:41:55.311Z,965.18
2018-06-22T00:42:55.294Z,965.17
2018-06-22T00:43:55.277Z,965.21
2018-06-22T00:44:55.259Z,965.25
2018-06-22T00:45:55.240Z,965.21
2018-06-22T00:46:55.224Z,965.21
2018-06-22T00:47:55.205Z,965.25
2018-06-22T00:48:55.189Z,965.24
2018-06-22T00:49:55.170Z,965.26
2018-06-22T00:50:55.152Z,965.26
2018-06-22T00:51:55.135Z,965.29
2018-06-22T00:52:55.118Z,965.34
2018-06-22T00:53:55.098Z,965.30
2018-06-22T00:54:55.082Z,965.42
2018-06-22T00:55:55.064Z,965.38
2018-06-22T00:56:55.046Z,965.40
2018-06-22T00:57:55.029Z,965.43
2018-06-22T00:58:55.010Z,965.50
2018-06-22T00:59:54.993Z,965.48
2018-06-22T01:00:54.975Z,965.52
2018-06-22T01:01:54.958Z,965.54
2018-06-22T01:02:54.940Z,965.52
2018-06-22T01:03:54.921Z,965.53
2018-06-22T01:04:54.903Z,965.53
2018-06-22T01:05:54.884Z,965.54
2018-06-22T01:06:54.867Z,965.52
2018-06-22T01:07:54.850Z,965.54
2018-06-22T01:08:54.833Z,965.55
2018-06-22T01:09:54.814Z,965.55
2018-06-22T01:10:54.796Z,965.58
2018-06-22T01:11:54.777Z,965.57
2018-06-22T01:12:54.761Z,965.63
2018-06-22T01:13:54.744Z,965.57
2018-06-22T01:14:56.224Z,965.61
2018-06-22T01:15:54.705Z,965.66
2018-06-22T01:16:54.688Z,965.59
2018-06-22T01:17:54.669Z,965.57
2018-06-22T01:18:54.650Z,965.58
2018-06-22T01:19:54.632Z,965.59
2018-06-22T01:20:55.365Z,965.58
2018-06-22T01:21:54.596Z,965.60
2018-06-22T01:22:54.579Z,965.66
2018-06-22T01:23:54.559Z,965.64
2018-06-22T01:24:54.543Z,965.64
2018-06-22T01:25:54.522Z,965.71
2018-06-22T01:26:54.504Z,965.74
2018-06-22T01:27:54.487Z,965.72
2018-06-22T01:28:54.469Z,965.76
2018-06-22T01:29:54.449Z,965.75
2018-06-22T01:30:54.432Z,965.76
2018-06-22T01:31:54.413Z,965.74
2018-06-22T01:32:54.394Z,965.72
2018-06-22T01:33:54.375Z,965.72
2018-06-22T01:34:54.356Z,965.73
2018-06-22T01:35:54.340Z,965.75
2018-06-22T01:36:54.320Z,965.77
2018-06-22T01:37:54.301Z,965.75
2018-06-22T01:38:54.284Z,965.78
2018-06-22T01:39:54.266Z,965.76
2018-06-22T01:40:54.246Z,965.75
2018-06-22T01:41:54.228Z,965.75
2018-06-22T01:42:54.208Z,965.76
2018-06-22T01:43:54.191Z,965.79
2018-06-22T01:44:54.173Z,965.78
2018-06-22T01:45:54.153Z,965.80
2018-06-22T01:46:54.140Z,965.79
2018-06-22T01:47:54.115Z,965.82
2018-06-22T01:48:54.098Z,965.86
2018-06-22T01:49:54.078Z,965.80
2018-06-22T01:50:54.058Z,965.80
2018-06-22T01:51:54.043Z,965.89
2018-06-22T01:52:54.023Z,965.92
2018-06-22T01:53:54.001Z,965.92
2018-06-22T01:54:53.982Z,965.92
2018-06-22T01:55:53.964Z,965.89
2018-06-22T01:56:53.945Z,965.93
2018-06-22T01:57:53.925Z,965.90
2018-06-22T01:58:53.911Z,965.87
2018-06-22T01:59:53.888Z,965.87
2018-06-22T02:00:53.870Z,965.87
2018-06-22T02:01:53.849Z,965.84
2018-06-22T02:02:53.831Z,965.87
2018-06-22T02:03:53.810Z,965.87
2018-06-22T02:04:53.792Z,965.89
2018-06-22T02:05:53.843Z,965.88
2018-06-22T02:06:53.754Z,965.87
2018-06-22T02:07:53.740Z,965.87
2018-06-22T02:08:53.715Z,965.88
2018-06-22T02:09:53.695Z,965.86
2018-06-22T02:10:53.676Z,965.93
2018-06-22T02:11:53.656Z,965.93
2018-06-22T02:12:53.638Z,965.94
2018-06-22T02:13:55.869Z,965.95
2018-06-22T02:14:53.597Z,965.99
2018-06-22T02:15:53.579Z,965.98
2018-06-22T02:16:53.560Z,966.02
2018-06-22T02:17:53.540Z,966.01
2018-06-22T02:18:53.520Z,966.07
2018-06-22T02:19:53.500Z,966.07
2018-06-22T02:20:53.481Z,966.09
2018-06-22T02:21:53.460Z,966.09
2018-06-22T02:22:53.443Z,966.09
2018-06-22T02:23:53.422Z,966.10
2018-06-22T02:24:53.403Z,966.15
2018-06-22T02:25:53.384Z,966.14
2018-06-22T02:26:53.364Z,966.11
2018-06-22T02:27:53.345Z,966.09
2018-06-22T02:28:53.327Z,966.10
2018-06-22T02:29:53.305Z,966.14
2018-06-22T02:30:53.288Z,966.10
2018-06-22T02:31:53.266Z,966.16
2018-06-22T02:32:53.247Z,966.08
2018-06-22T02:33:53.228Z,966.11
2018-06-22T02:34:53.209Z,966.10
2018-06-22T02:35:53.189Z,966.06
2018-06-22T02:36:53.172Z,966.10
2018-06-22T02:37:53.148Z,966.12
2018-06-22T02:38:53.133Z,966.07
2018-06-22T02:39:53.110Z,966.09
2018-06-22T02:40:53.090Z,966.12
2018-06-22T02:41:53.070Z,966.08
2018-06-22T02:42:53.053Z,966.12
2018-06-22T02:43:53.033Z,966.13
2018-06-22T02:44:53.012Z,966.12
2018-06-22T02:45:52.992Z,966.14
2018-06-22T02:46:52.976Z,966.15
2018-06-22T02:47:52.970Z,966.12
2018-06-22T02:48:52.935Z,966.16
2018-06-22T02:49:52.916Z,966.17
2018-06-22T02:50:52.895Z,966.12
2018-06-22T02:51:52.874Z,966.13
2018-06-22T02:52:52.865Z,966.15
2018-06-22T02:53:52.835Z,966.19
2018-06-22T02:54:52.817Z,966.19
2018-06-22T02:55:52.795Z,966.20
2018-06-22T02:56:52.776Z,966.22
2018-06-22T02:57:52.764Z,966.22
2018-06-22T02:58:52.734Z,966.25
2018-06-22T02:59:52.772Z,966.23
2018-06-22T03:00:52.697Z,966.24
2018-06-22T03:01:52.675Z,966.22
2018-06-22T03:02:52.656Z,966.24
2018-06-22T03:03:52.637Z,966.23
2018-06-22T03:04:52.617Z,966.22
2018-06-22T03:05:52.597Z,966.19
2018-06-22T03:06:52.577Z,966.20
2018-06-22T03:07:52.556Z,966.24
2018-06-22T03:08:52.538Z,966.23
2018-06-22T03:09:52.516Z,966.25
2018-06-22T03:10:52.498Z,966.20
2018-06-22T03:11:52.477Z,966.22
2018-06-22T03:12:52.459Z,966.26
2018-06-22T03:13:52.436Z,966.25
2018-06-22T03:14:52.416Z,966.26
2018-06-22T03:15:52.399Z,966.29
2018-06-22T03:16:53.878Z,966.27
2018-06-22T03:17:52.355Z,966.29
2018-06-22T03:18:52.335Z,966.32
2018-06-22T03:19:52.316Z,966.29
2018-06-22T03:20:52.297Z,966.31
2018-06-22T03:21:52.274Z,966.30
2018-06-22T03:22:52.255Z,966.31
2018-06-22T03:23:52.236Z,966.34
2018-06-22T03:24:52.216Z,966.30
2018-06-22T03:25:52.198Z,966.36
2018-06-22T03:26:52.175Z,966.28
2018-06-22T03:27:52.159Z,966.33
2018-06-22T03:28:52.136Z,966.27
2018-06-22T03:29:52.113Z,966.25
2018-06-22T03:30:52.096Z,966.24
2018-06-22T03:31:52.077Z,966.28
2018-06-22T03:32:52.054Z,966.32
2018-06-22T03:33:52.034Z,966.28
2018-06-22T03:34:52.014Z,966.29
2018-06-22T03:35:51.993Z,966.28
2018-06-22T03:36:51.972Z,966.31
2018-06-22T03:37:51.952Z,966.34
2018-06-22T03:38:51.933Z,966.36
2018-06-22T03:39:51.913Z,966.33
2018-06-22T03:40:51.893Z,966.34
2018-06-22T03:41:51.872Z,966.32
2018-06-22T03:42:51.852Z,966.32
2018-06-22T03:43:51.831Z,966.34
2018-06-22T03:44:51.811Z,966.39
2018-06-22T03:45:51.791Z,966.43
2018-06-22T03:46:51.770Z,966.41
2018-06-22T03:47:51.755Z,966.44
2018-06-22T03:48:51.730Z,966.42
2018-06-22T03:49:51.709Z,966.38
2018-06-22T03:50:51.688Z,966.39
2018-06-22T03:51:51.668Z,966.39
2018-06-22T03:52:51.650Z,966.30
2018-06-22T03:53:51.628Z,966.32
2018-06-22T03:54:51.607Z,966.39
2018-06-22T03:55:51.588Z,966.34
2018-06-22T03:56:51.588Z,966.37
2018-06-22T03:57:51.546Z,966.36
2018-06-22T03:58:51.525Z,966.40
2018-06-22T03:59:51.506Z,966.39
2018-06-22T04:00:51.485Z,966.37
2018-06-22T04:01:51.464Z,966.40
2018-06-22T04:02:51.445Z,966.38
2018-06-22T04:03:51.425Z,966.40
2018-06-22T04:04:51.404Z,966.44
2018-06-22T04:05:51.382Z,966.42
2018-06-22T04:06:51.362Z,966.49
2018-06-22T04:07:51.343Z,966.47
2018-06-22T04:08:51.323Z,966.49
2018-06-22T04:09:51.303Z,966.44
2018-06-22T04:10:51.282Z,966.50
2018-06-22T04:11:51.261Z,966.46
2018-06-22T04:12:51.242Z,966.51
2018-06-22T04:13:52.722Z,966.47
2018-06-22T04:14:51.199Z,966.49
2018-06-22T04:15:51.179Z,966.51
2018-06-22T04:16:51.198Z,966.52
2018-06-22T04:17:51.138Z,966.54
2018-06-22T04:18:51.117Z,966.52
2018-06-22T04:19:51.097Z,966.58
2018-06-22T04:20:51.076Z,966.54
2018-06-22T04:21:51.056Z,966.58
2018-06-22T04:22:51.036Z,966.56
2018-06-22T04:23:51.015Z,966.54
2018-06-22T04:24:50.994Z,966.55
2018-06-22T04:25:50.977Z,966.57
2018-06-22T04:26:50.955Z,966.58
2018-06-22T04:27:50.935Z,966.59
2018-06-22T04:28:50.913Z,966.58
2018-06-22T04:29:50.892Z,966.56
2018-06-22T04:30:50.872Z,966.55
2018-06-22T04:31:50.852Z,966.53
2018-06-22T04:32:50.833Z,966.53
2018-06-22T04:33:50.810Z,966.50
2018-06-22T04:34:50.790Z,966.51
2018-06-22T04:35:50.770Z,966.50
2018-06-22T04:36:50.751Z,966.47
2018-06-22T04:37:50.742Z,966.51
2018-06-22T04:38:50.711Z,966.47
2018-06-22T04:39:50.689Z,966.47
2018-06-22T04:40:50.670Z,966.49
2018-06-22T04:41:51.399Z,966.51
2018-06-22T04:42:50.628Z,966.49
2018-06-22T04:43:50.608Z,966.49
2018-06-22T04:44:50.588Z,966.48
2018-06-22T04:45:50.568Z,966.48
2018-06-22T04:46:50.546Z,966.49
2018-06-22T04:47:50.526Z,966.48
2018-06-22T04:48:50.508Z,966.48
2018-06-22T04:49:50.487Z,966.50
2018-06-22T04:50:50.467Z,966.48
2018-06-22T04:51:50.447Z,966.55
2018-06-22T04:52:50.425Z,966.52
2018-06-22T04:53:50.405Z,966.53
2018-06-22T04:54:50.385Z,966.51
2018-06-22T04:55:50.366Z,966.52
2018-06-22T04:56:50.345Z,966.54
2018-06-22T04:57:50.323Z,966.54
2018-06-22T04:58:50.303Z,966.56
2018-06-22T04:59:50.284Z,966.55
2018-06-22T05:00:50.263Z,966.54
2018-06-22T05:01:50.242Z,966.53
2018-06-22T05:02:50.225Z,966.52
2018-06-22T05:03:50.202Z,966.50
2018-06-22T05:04:50.181Z,966.49
2018-06-22T05:05:50.161Z,966.48
2018-06-22T05:06:50.141Z,966.51
2018-06-22T05:07:50.120Z,966.53
2018-06-22T05:08:50.103Z,966.55
2018-06-22T05:09:50.080Z,966.59
2018-06-22T05:10:50.120Z,966.53
2018-06-22T05:11:50.040Z,966.59
2018-06-22T05:12:50.020Z,966.64
2018-06-22T05:13:49.997Z,966.66
2018-06-22T05:14:49.977Z,966.65
2018-06-22T05:15:50.116Z,966.70
2018-06-22T05:16:49.937Z,966.69
2018-06-22T05:17:49.916Z,966.68
2018-06-22T05:18:49.896Z,966.64
2018-06-22T05:19:49.875Z,966.68
2018-06-22T05:20:49.856Z,966.65
2018-06-22T05:21:49.835Z,966.66
2018-06-22T05:22:49.814Z,966.65
2018-06-22T05:23:49.798Z,966.64
2018-06-22T05:24:49.822Z,966.65
2018-06-22T05:25:49.752Z,966.72
2018-06-22T05:26:49.732Z,966.67
2018-06-22T05:27:49.719Z,966.66
2018-06-22T05:28:49.693Z,966.68
2018-06-22T05:29:49.671Z,966.67
2018-06-22T05:30:49.651Z,966.68
2018-06-22T05:31:49.631Z,966.77
2018-06-22T05:32:49.611Z,966.74
2018-06-22T05:33:49.589Z,966.74
2018-06-22T05:34:49.570Z,966.76
2018-06-22T05:35:52.570Z,966.75
2018-06-22T05:36:49.530Z,966.72
2018-06-22T05:37:49.509Z,966.71
2018-06-22T05:38:49.489Z,966.67
2018-06-22T05:39:49.473Z,966.70
2018-06-22T05:40:49.449Z,966.72
2018-06-22T05:41:49.428Z,966.73
2018-06-22T05:42:49.407Z,966.74
2018-06-22T05:43:49.387Z,966.70
2018-06-22T05:44:49.366Z,966.76
2018-06-22T05:45:49.344Z,966.79
2018-06-22T05:46:49.324Z,966.81
2018-06-22T05:47:49.304Z,966.80
2018-06-22T05:48:49.287Z,966.85
2018-06-22T05:49:49.263Z,966.82
2018-06-22T05:50:49.344Z,966.80
2018-06-22T05:51:49.223Z,966.83
2018-06-22T05:52:49.202Z,966.81
2018-06-22T05:53:49.182Z,966.77
2018-06-22T05:54:49.163Z,966.83
2018-06-22T05:55:49.141Z,966.75
2018-06-22T05:56:49.173Z,966.81
2018-06-22T05:57:49.100Z,966.83
2018-06-22T05:58:49.080Z,966.81
2018-06-22T05:59:49.060Z,966.82
2018-06-22T06:00:49.066Z,966.82
2018-06-22T06:01:49.020Z,966.87
2018-06-22T06:02:48.999Z,966.95
2018-06-22T06:03:48.978Z,966.90
2018-06-22T06:04:48.959Z,966.87
2018-06-22T06:05:48.939Z,966.90
2018-06-22T06:06:48.920Z,966.91
2018-06-22T06:07:49.648Z,966.88
2018-06-22T06:08:48.876Z,966.89
2018-06-22T06:09:48.856Z,966.93
2018-06-22T06:10:48.835Z,966.89
2018-06-22T06:11:48.815Z,966.88
2018-06-22T06:12:48.795Z,966.89
2018-06-22T06:13:48.775Z,966.92
2018-06-22T06:14:48.766Z,966.90
2018-06-22T06:15:48.740Z,966.94
2018-06-22T06:16:48.715Z,966.91
2018-06-22T06:17:48.694Z,966.90
2018-06-22T06:18:48.673Z,966.91
2018-06-22T06:19:48.653Z,966.95
2018-06-22T06:20:48.633Z,966.93
2018-06-22T06:21:48.612Z,966.93
2018-06-22T06:22:48.593Z,966.97
2018-06-22T06:23:48.571Z,966.92
2018-06-22T06:24:48.551Z,966.92
2018-06-22T06:25:48.530Z,966.94
2018-06-22T06:26:48.511Z,966.95
2018-06-22T06:27:48.491Z,966.94
2018-06-22T06:28:48.471Z,966.95
2018-06-22T06:29:48.449Z,966.92
2018-06-22T06:30:48.431Z,966.96
2018-06-22T06:31:48.410Z,966.91
2018-06-22T06:32:48.391Z,966.87
2018-06-22T06:33:48.368Z,966.93
2018-06-22T06:34:48.352Z,966.91
2018-06-22T06:35:48.329Z,966.90
2018-06-22T06:36:48.309Z,966.93
2018-06-22T06:37:48.289Z,966.90
2018-06-22T06:38:48.271Z,966.96
2018-06-22T06:39:48.248Z,966.96
2018-06-22T06:40:48.228Z,967.02
2018-06-22T06:41:48.217Z,967.01
2018-06-22T06:42:48.188Z,967.02
2018-06-22T06:43:48.168Z,966.96
2018-06-22T06:44:48.147Z,967.03
2018-06-22T06:45:48.127Z,966.97
2018-06-22T06:46:48.108Z,966.96
2018-06-22T06:47:48.088Z,966.95
2018-06-22T06:48:48.067Z,966.91
2018-06-22T06:49:48.046Z,967.04
2018-06-22T06:50:48.027Z,966.98
2018-06-22T06:51:48.007Z,967.03
2018-06-22T06:52:47.987Z,967.00
2018-06-22T06:53:47.965Z,967.02
2018-06-22T06:54:47.949Z,967.02
2018-06-22T06:55:47.927Z,967.13
2018-06-22T06:56:47.957Z,967.06
2018-06-22T06:57:47.886Z,967.05
2018-06-22T06:58:47.868Z,967.13
2018-06-22T06:59:47.894Z,967.09
2018-06-22T07:00:47.827Z,967.10
2018-06-22T07:01:47.806Z,967.17
2018-06-22T07:02:47.787Z,967.12
2018-06-22T07:03:47.765Z,967.11
2018-06-22T07:04:47.745Z,967.13
2018-06-22T07:05:47.726Z,967.14
2018-06-22T07:06:47.705Z,967.17
2018-06-22T07:07:47.685Z,967.16
2018-06-22T07:08:47.676Z,967.19
2018-06-22T07:09:47.644Z,967.22
2018-06-22T07:10:47.625Z,967.23
2018-06-22T07:11:47.605Z,967.28
2018-06-22T07:12:47.585Z,967.19
2018-06-22T07:13:47.565Z,967.21
2018-06-22T07:14:47.546Z,967.19
2018-06-22T07:15:47.527Z,967.18
2018-06-22T07:16:47.507Z,967.21
2018-06-22T07:17:47.486Z,967.20
2018-06-22T07:18:47.471Z,967.19
2018-06-22T07:19:50.449Z,967.16
2018-06-22T07:20:47.427Z,967.20
2018-06-22T07:21:47.406Z,967.15
2018-06-22T07:22:47.389Z,967.22
2018-06-22T07:23:47.369Z,967.22
2018-06-22T07:24:47.350Z,967.25
2018-06-22T07:25:48.078Z,967.25
2018-06-22T07:26:47.308Z,967.30
2018-06-22T07:27:47.287Z,967.26
2018-06-22T07:28:47.270Z,967.33
2018-06-22T07:29:47.251Z,967.33
2018-06-22T07:30:47.230Z,967.30
2018-06-22T07:31:47.209Z,967.34
2018-06-22T07:32:47.191Z,967.30
2018-06-22T07:33:47.173Z,967.31
2018-06-22T07:34:47.150Z,967.35
2018-06-22T07:35:47.132Z,967.34
2018-06-22T07:36:47.111Z,967.37
2018-06-22T07:37:47.093Z,967.32
2018-06-22T07:38:47.072Z,967.42
2018-06-22T07:39:47.054Z,967.45
2018-06-22T07:40:47.033Z,967.40
2018-06-22T07:41:47.013Z,967.40
2018-06-22T07:42:46.993Z,967.41
2018-06-22T07:43:47.007Z,967.45
2018-06-22T07:44:46.961Z,967.42
2018-06-22T07:45:46.937Z,967.43
2018-06-22T07:46:46.917Z,967.43
2018-06-22T07:47:46.897Z,967.48
2018-06-22T07:48:46.879Z,967.45
2018-06-22T07:49:46.884Z,967.47
2018-06-22T07:50:46.840Z,967.56
2018-06-22T07:51:46.822Z,967.54
2018-06-22T07:52:46.800Z,967.55
2018-06-22T07:53:46.781Z,967.55
2018-06-22T07:54:46.761Z,967.54
2018-06-22T07:55:46.743Z,967.58
2018-06-22T07:56:48.225Z,967.56
2018-06-22T07:57:46.703Z,967.56
2018-06-22T07:58:46.684Z,967.56
2018-06-22T07:59:46.667Z,967.57
2018-06-22T08:00:46.646Z,967.65
2018-06-22T08:01:46.625Z,967.63
2018-06-22T08:02:48.108Z,967.63
2018-06-22T08:03:46.588Z,967.64
2018-06-22T08:04:46.568Z,967.66
2018-06-22T08:05:46.549Z,967.68
2018-06-22T08:06:46.530Z,967.69
2018-06-22T08:07:46.511Z,967.66
2018-06-22T08:08:47.242Z,967.70
2018-06-22T08:09:46.471Z,967.63
2018-06-22T08:10:46.452Z,967.69
2018-06-22T08:11:46.433Z,967.73
2018-06-22T08:12:46.414Z,967.68
2018-06-22T08:13:46.395Z,967.67
2018-06-22T08:14:46.381Z,967.75
2018-06-22T08:15:46.357Z,967.72
2018-06-22T08:16:46.391Z,967.69
2018-06-22T08:17:46.317Z,967.69
2018-06-22T08:18:46.298Z,967.71
2018-06-22T08:19:46.279Z,967.73
2018-06-22T08:20:46.260Z,967.75
2018-06-22T08:21:46.240Z,967.78
2018-06-22T08:22:46.221Z,967.72
2018-06-22T08:23:46.203Z,967.72
2018-06-22T08:24:46.184Z,967.72
2018-06-22T08:25:46.167Z,967.70
2018-06-22T08:26:46.145Z,967.72
2018-06-22T08:27:46.128Z,967.71
2018-06-22T08:28:46.107Z,967.76
2018-06-22T08:29:46.089Z,967.75
2018-06-22T08:30:46.069Z,967.78
2018-06-22T08:31:46.054Z,967.75
2018-06-22T08:32:46.033Z,967.72
2018-06-22T08:33:46.013Z,967.75
2018-06-22T08:34:46.038Z,967.73
2018-06-22T08:35:45.974Z,967.73
2018-06-22T08:36:45.955Z,967.71
2018-06-22T08:37:45.936Z,967.64
2018-06-22T08:38:45.917Z,967.69
2018-06-22T08:39:45.899Z,967.73
2018-06-22T08:40:45.879Z,967.69
2018-06-22T08:41:45.981Z,967.70
2018-06-22T08:42:45.843Z,967.73
2018-06-22T08:43:45.824Z,967.71
2018-06-22T08:44:45.806Z,967.69
2018-06-22T08:45:45.785Z,967.72
2018-06-22T08:46:45.766Z,967.72
2018-06-22T08:47:45.752Z,967.71
2018-06-22T08:48:45.733Z,967.70
2018-06-22T08:49:45.711Z,967.71
2018-06-22T08:50:45.691Z,967.72
2018-06-22T08:51:45.674Z,967.73
2018-06-22T08:52:45.655Z,967.73
2018-06-22T08:53:45.638Z,967.71
2018-06-22T08:54:45.617Z,967.69
2018-06-22T08:55:45.625Z,967.71
2018-06-22T08:56:45.579Z,967.73
2018-06-22T08:57:45.560Z,967.73
2018-06-22T08:58:45.543Z,967.72
2018-06-22T08:59:45.523Z,967.71
2018-06-22T09:00:45.504Z,967.67
2018-06-22T09:01:45.485Z,967.67
2018-06-22T09:02:45.468Z,967.72
2018-06-22T09:03:45.449Z,967.71
2018-06-22T09:04:45.433Z,967.76
2018-06-22T09:05:45.411Z,967.74
2018-06-22T09:06:45.393Z,967.69
2018-06-22T09:07:45.379Z,967.70
2018-06-22T09:08:45.356Z,967.65
2018-06-22T09:09:45.337Z,967.59
2018-06-22T09:10:45.319Z,967.63
2018-06-22T09:11:45.301Z,967.61
2018-06-22T09:12:49.787Z,967.57
2018-06-22T09:13:45.264Z,967.59
2018-06-22T09:14:45.246Z,967.56
2018-06-22T09:15:45.229Z,967.53
2018-06-22T09:16:45.210Z,967.54
2018-06-22T09:17:45.192Z,967.58
2018-06-22T09:18:45.923Z,967.60
2018-06-22T09:19:45.165Z,967.59
2018-06-22T09:20:45.137Z,967.60
2018-06-22T09:21:45.120Z,967.61
2018-06-22T09:22:45.101Z,967.60
2018-06-22T09:23:45.082Z,967.55
2018-06-22T09:24:45.066Z,967.57
2018-06-22T09:25:45.046Z,967.54
2018-06-22T09:26:45.029Z,967.58
2018-06-22T09:27:45.012Z,967.58
2018-06-22T09:28:44.992Z,967.61
2018-06-22T09:29:44.976Z,967.62
2018-06-22T09:30:44.955Z,967.62
2018-06-22T09:31:44.940Z,967.62
2018-06-22T09:32:44.921Z,967.69
2018-06-22T09:33:44.902Z,967.69
2018-06-22T09:34:44.885Z,967.67
2018-06-22T09:35:44.873Z,967.63
2018-06-22T09:36:44.879Z,967.63
2018-06-22T09:37:44.831Z,967.61
2018-06-22T09:38:44.812Z,967.57
2018-06-22T09:39:44.795Z,967.58
2018-06-22T09:40:44.777Z,967.65
2018-06-22T09:41:44.760Z,967.58
2018-06-22T09:42:44.814Z,967.63
2018-06-22T09:43:44.724Z,967.61
2018-06-22T09:44:44.705Z,967.67
2018-06-22T09:45:44.687Z,967.67
2018-06-22T09:46:44.669Z,967.64
2018-06-22T09:47:44.652Z,967.63
2018-06-22T09:48:44.635Z,967.63
2018-06-22T09:49:44.615Z,967.66
2018-06-22T09:50:44.598Z,967.61
2018-06-22T09:51:44.581Z,967.60
2018-06-22T09:52:44.564Z,967.55
2018-06-22T09:53:44.543Z,967.56
2018-06-22T09:54:44.525Z,967.54
2018-06-22T09:55:44.509Z,967.54
2018-06-22T09:56:44.490Z,967.55
2018-06-22T09:57:44.471Z,967.58
2018-06-22T09:58:44.456Z,967.61
2018-06-22T09:59:44.437Z,967.65
2018-06-22T10:00:44.420Z,967.61
2018-06-22T10:01:44.402Z,967.60
2018-06-22T10:02:44.383Z,967.54
2018-06-22T10:03:44.367Z,967.60
2018-06-22T10:04:44.385Z,967.56
2018-06-22T10:05:44.331Z,967.56
2018-06-22T10:06:44.313Z,967.57
2018-06-22T10:07:44.295Z,967.55
2018-06-22T10:08:44.277Z,967.52
2018-06-22T10:09:44.263Z,967.52
2018-06-22T10:10:47.244Z,967.51
2018-06-22T10:11:44.224Z,967.49
2018-06-22T10:12:44.207Z,967.43
2018-06-22T10:13:44.189Z,967.46
2018-06-22T10:14:44.173Z,967.46
2018-06-22T10:15:44.154Z,967.45
2018-06-22T10:16:44.139Z,967.46
2018-06-22T10:17:44.119Z,967.50
2018-06-22T10:18:44.103Z,967.51
2018-06-22T10:19:44.117Z,967.50
2018-06-22T10:20:44.069Z,967.48
2018-06-22T10:21:44.051Z,967.48
2018-06-22T10:22:44.035Z,967.47
2018-06-22T10:23:44.016Z,967.50
2018-06-22T10:24:44.000Z,967.49
2018-06-22T10:25:43.982Z,967.53
2018-06-22T10:26:43.964Z,967.52
2018-06-22T10:27:43.948Z,967.50
2018-06-22T10:28:43.930Z,967.51
2018-06-22T10:29:43.913Z,967.47
2018-06-22T10:30:43.897Z,967.48
2018-06-22T10:31:43.882Z,967.48
2018-06-22T10:32:43.862Z,967.48
2018-06-22T10:33:43.844Z,967.48
2018-06-22T10:34:43.828Z,967.42
2018-06-22T10:35:43.810Z,967.44
2018-06-22T10:36:43.792Z,967.45
2018-06-22T10:37:43.781Z,967.40
2018-06-22T10:38:43.758Z,967.42
2018-06-22T10:39:43.741Z,967.39
2018-06-22T10:40:43.725Z,967.40
2018-06-22T10:41:43.706Z,967.39
2018-06-22T10:42:43.693Z,967.45
2018-06-22T10:43:43.673Z,967.39
2018-06-22T10:44:43.655Z,967.36
2018-06-22T10:45:43.669Z,967.36
2018-06-22T10:46:43.620Z,967.34
2018-06-22T10:47:43.606Z,967.33
2018-06-22T10:48:43.587Z,967.29
2018-06-22T10:49:43.569Z,967.25
2018-06-22T10:50:43.551Z,967.22
2018-06-22T10:51:43.536Z,967.20
2018-06-22T10:52:43.520Z,967.21
2018-06-22T10:53:43.501Z,967.16
2018-06-22T10:54:43.484Z,967.15
2018-06-22T10:55:43.467Z,967.19
2018-06-22T10:56:43.449Z,967.18
2018-06-22T10:57:43.431Z,967.17
2018-06-22T10:58:43.415Z,967.16
2018-06-22T10:59:43.512Z,967.16
2018-06-22T11:00:43.383Z,967.17
2018-06-22T11:01:43.365Z,967.16
2018-06-22T11:02:43.348Z,967.12
2018-06-22T11:03:43.330Z,967.16
2018-06-22T11:04:43.313Z,967.17
2018-06-22T11:05:43.346Z,967.16
2018-06-22T11:06:43.279Z,967.14
2018-06-22T11:07:43.262Z,967.12
2018-06-22T11:08:43.247Z,967.14
2018-06-22T11:09:43.228Z,967.12
2018-06-22T11:10:43.211Z,967.16
2018-06-22T11:11:43.196Z,967.16
2018-06-22T11:12:43.178Z,967.17
2018-06-22T11:13:43.160Z,967.18
2018-06-22T11:14:43.144Z,967.11
2018-06-22T11:15:43.127Z,967.12
2018-06-22T11:16:43.117Z,967.10
2018-06-22T11:17:43.093Z,967.09
2018-06-22T11:18:43.077Z,967.11
2018-06-22T11:19:43.060Z,967.12
2018-06-22T11:20:43.045Z,967.10
2018-06-22T11:21:43.027Z,967.08
2018-06-22T11:22:43.009Z,967.04
2018-06-22T11:23:42.993Z,967.07
2018-06-22T11:24:43.002Z,967.06
2018-06-22T11:25:42.958Z,967.05
2018-06-22T11:26:42.942Z,967.08
2018-06-22T11:27:42.926Z,967.06
2018-06-22T11:28:42.910Z,967.11
2018-06-22T11:29:42.892Z,967.06
2018-06-22T11:30:42.893Z,967.04
2018-06-22T11:31:42.862Z,967.04
2018-06-22T11:32:42.847Z,967.09
2018-06-22T11:33:42.826Z,967.10
2018-06-22T11:34:42.809Z,967.05
2018-06-22T11:35:42.825Z,967.03
2018-06-22T11:36:42.777Z,967.00
2018-06-22T11:37:42.758Z,967.04
2018-06-22T11:38:42.741Z,967.06
2018-06-22T11:39:42.727Z,967.05
2018-06-22T11:40:43.459Z,967.09
2018-06-22T11:41:42.692Z,967.09
2018-06-22T11:42:42.676Z,967.02
2018-06-22T11:43:42.662Z,967.02
2018-06-22T11:44:42.643Z,967.06
2018-06-22T11:45:42.627Z,967.02
2018-06-22T11:46:42.617Z,967.04
2018-06-22T11:47:42.594Z,967.03
2018-06-22T11:48:42.582Z,966.99
2018-06-22T11:49:42.562Z,966.97
2018-06-22T11:50:42.544Z,967.00
2018-06-22T11:51:42.530Z,966.95
2018-06-22T11:52:42.510Z,966.97
2018-06-22T11:53:42.493Z,966.99
2018-06-22T11:54:42.477Z,966.94
2018-06-22T11:55:42.460Z,967.00
2018-06-22T11:56:42.444Z,966.97
2018-06-22T11:57:42.427Z,966.94
2018-06-22T11:58:42.411Z,966.93
2018-06-22T11:59:42.394Z,966.90
2018-06-22T12:00:42.378Z,966.90
2018-06-22T12:01:42.368Z,966.84
2018-06-22T12:02:45.351Z,966.84
2018-06-22T12:03:42.329Z,966.86
2018-06-22T12:04:42.361Z,966.81
2018-06-22T12:05:42.296Z,966.74
2018-06-22T12:06:42.280Z,966.74
2018-06-22T12:07:42.264Z,966.77
2018-06-22T12:08:42.999Z,966.73
2018-06-22T12:09:42.231Z,966.72
2018-06-22T12:10:42.217Z,966.73
2018-06-22T12:11:42.202Z,966.71
2018-06-22T12:12:42.185Z,966.69
2018-06-22T12:13:42.169Z,966.67
2018-06-22T12:14:42.154Z,966.69
2018-06-22T12:15:42.137Z,966.67
2018-06-22T12:16:42.127Z,966.65
2018-06-22T12:17:42.107Z,966.67
2018-06-22T12:18:42.095Z,966.69
2018-06-22T12:19:42.078Z,966.67
2018-06-22T12:20:42.062Z,966.70
2018-06-22T12:21:42.045Z,966.70
2018-06-22T12:22:42.031Z,966.70
2018-06-22T12:23:42.015Z,966.74
2018-06-22T12:24:42.000Z,966.70
2018-06-22T12:25:41.983Z,966.68
2018-06-22T12:26:41.969Z,966.64
2018-06-22T12:27:41.987Z,966.66
2018-06-22T12:28:41.940Z,966.60